createdAt,value
2023-03-06T00:02:48.867Z,23.23
2023-03-06T00:06:49.025Z,23.30
2023-03-06T00:10:49.183Z,23.25
2023-03-06T00:14:49.337Z,23.29
2023-03-06T00:18:49.518Z,23.29
2023-03-06T00:22:49.701Z,23.33
2023-03-06T00:26:49.839Z,23.31
2023-03-06T00:30:50.035Z,23.26
2023-03-06T00:34:50.232Z,23.30
2023-03-06T00:38:50.580Z,23.28
2023-03-06T00:42:50.406Z,23.27
2023-03-06T00:46:50.416Z,23.28
2023-03-06T00:50:50.344Z,23.30
2023-03-06T00:54:50.323Z,23.30
2023-03-06T00:58:50.253Z,23.25
2023-03-06T01:02:50.249Z,23.33
2023-03-06T01:06:50.211Z,23.32
2023-03-06T01:10:50.155Z,23.31
2023-03-06T01:14:50.113Z,23.36
2023-03-06T01:18:50.092Z,23.34
2023-03-06T01:22:50.209Z,23.32
2023-03-06T01:26:50.440Z,23.31
2023-03-06T01:30:50.639Z,23.30
2023-03-06T01:34:50.879Z,23.35
2023-03-06T01:38:50.828Z,23.27
2023-03-06T01:42:50.790Z,23.33
2023-03-06T01:46:50.744Z,23.32
2023-03-06T01:50:50.704Z,23.35
2023-03-06T01:54:50.692Z,23.33
2023-03-06T01:58:50.644Z,23.32
2023-03-06T02:02:50.588Z,23.33
2023-03-06T02:06:50.536Z,23.31
2023-03-06T02:11:44.711Z,23.32
2023-03-06T02:15:44.570Z,23.36
2023-03-06T02:19:44.572Z,23.35
2023-03-06T02:23:44.497Z,23.32
2023-03-06T02:27:44.529Z,23.35
2023-03-06T02:31:44.468Z,23.29
2023-03-06T02:35:44.424Z,23.35
2023-03-06T02:39:44.354Z,23.35
2023-03-06T02:43:44.318Z,23.36
2023-03-06T02:47:44.336Z,23.37
2023-03-06T02:51:44.436Z,23.33
2023-03-06T02:55:44.438Z,23.35
2023-03-06T02:59:44.345Z,23.37
2023-03-06T03:03:44.340Z,23.36
2023-03-06T03:07:44.284Z,23.36
2023-03-06T03:11:44.270Z,23.37
2023-03-06T03:15:44.266Z,23.33
2023-03-06T03:19:44.202Z,23.37
2023-03-06T03:23:44.149Z,23.37
2023-03-06T03:27:44.120Z,23.37
2023-03-06T03:31:44.104Z,23.37
2023-03-06T03:35:44.305Z,23.31
2023-03-06T03:39:44.470Z,23.37
2023-03-06T03:43:44.695Z,23.34
2023-03-06T03:47:44.943Z,23.37
2023-03-06T03:51:45.111Z,23.37
2023-03-06T03:55:45.280Z,23.38
2023-03-06T03:59:45.472Z,23.34
2023-03-06T04:03:45.428Z,23.35
2023-03-06T04:07:45.396Z,23.35
2023-03-06T04:11:45.360Z,23.34
2023-03-06T04:15:45.316Z,23.40
2023-03-06T04:19:45.318Z,23.35
2023-03-06T04:23:45.216Z,23.37
2023-03-06T04:27:45.196Z,23.37
2023-03-06T04:31:45.213Z,23.42
2023-03-06T04:35:45.210Z,23.41
2023-03-06T04:39:45.097Z,23.37
2023-03-06T04:43:45.229Z,23.42
2023-03-06T04:47:45.192Z,23.41
2023-03-06T04:51:45.168Z,23.37
2023-03-06T04:55:45.139Z,23.41
2023-03-06T04:59:45.078Z,23.38
2023-03-06T05:03:45.032Z,23.42
2023-03-06T05:07:45.017Z,23.26
2023-03-06T05:11:44.935Z,23.00
2023-03-06T05:15:45.039Z,22.82
2023-03-06T05:19:44.916Z,22.69
2023-03-06T05:23:44.848Z,22.49
2023-03-06T05:27:44.843Z,22.43
2023-03-06T05:31:44.829Z,22.09
2023-03-06T05:35:44.824Z,22.13
2023-03-06T05:39:44.714Z,22.14
2023-03-06T05:43:44.685Z,22.25
2023-03-06T05:47:44.666Z,22.29
2023-03-06T05:51:44.604Z,22.32
2023-03-06T05:55:44.611Z,22.38
2023-03-06T05:59:46.324Z,22.47
2023-03-06T06:03:44.530Z,22.50
2023-03-06T06:07:44.434Z,22.47
2023-03-06T06:11:44.418Z,22.53
2023-03-06T06:15:44.646Z,22.54
2023-03-06T06:19:44.690Z,22.53
2023-03-06T06:23:44.924Z,22.60
2023-03-06T06:27:45.045Z,22.60
2023-03-06T06:31:45.210Z,22.63
2023-03-06T06:35:45.459Z,22.98
2023-03-06T06:39:45.427Z,23.25
2023-03-06T06:43:45.465Z,23.63
2023-03-06T06:47:45.640Z,23.76
2023-03-06T06:51:45.621Z,24.03
2023-03-06T06:55:45.642Z,24.24
2023-03-06T06:59:45.770Z,24.33
2023-03-06T07:03:46.019Z,24.50
2023-03-06T07:07:45.977Z,24.60
2023-03-06T07:11:45.992Z,24.83
2023-03-06T07:15:45.998Z,24.81
2023-03-06T07:19:46.027Z,24.77
2023-03-06T07:23:45.474Z,24.87
2023-03-06T07:27:51.090Z,24.68
2023-03-06T07:31:46.383Z,24.69
2023-03-06T07:35:45.508Z,24.64
2023-03-06T07:39:45.301Z,24.77
2023-03-06T07:43:45.278Z,24.47
2023-03-06T07:47:45.238Z,24.32
2023-03-06T07:51:45.218Z,24.15
2023-03-06T07:55:45.507Z,24.04
2023-03-06T07:59:45.345Z,24.00
2023-03-06T08:03:45.585Z,23.92
2023-03-06T08:07:45.340Z,23.79
2023-03-06T08:11:45.312Z,23.74
2023-03-06T08:15:45.252Z,23.66
2023-03-06T08:19:45.204Z,23.50
2023-03-06T08:23:45.183Z,23.43
2023-03-06T08:27:45.497Z,23.34
2023-03-06T08:31:45.561Z,23.21
2023-03-06T08:35:45.115Z,19.67
2023-03-06T08:39:45.508Z,21.24
2023-03-06T08:43:45.545Z,21.70
2023-03-06T08:47:44.984Z,22.11
2023-03-06T08:51:45.002Z,22.43
2023-03-06T08:55:44.922Z,22.71
2023-03-06T08:59:45.008Z,22.06
2023-03-06T09:03:44.844Z,22.92
2023-03-06T09:07:44.980Z,21.28
2023-03-06T09:11:44.815Z,21.61
2023-03-06T09:15:44.726Z,21.87
2023-03-06T09:19:44.753Z,22.20
2023-03-06T09:23:45.091Z,21.53
2023-03-06T09:27:44.640Z,18.76
2023-03-06T09:31:44.615Z,18.78
2023-03-06T09:35:44.574Z,19.34
2023-03-06T09:39:44.548Z,20.73
2023-03-06T09:43:44.572Z,21.72
2023-03-06T09:47:44.474Z,22.65
2023-03-06T09:51:44.428Z,22.45
2023-03-06T09:55:44.375Z,21.93
2023-03-06T09:59:44.402Z,21.93
2023-03-06T10:03:45.052Z,22.03
2023-03-06T10:07:45.027Z,22.16
2023-03-06T10:11:45.051Z,22.17
2023-03-06T10:15:45.553Z,22.22
2023-03-06T10:19:45.097Z,22.24
2023-03-06T10:23:45.118Z,22.23
2023-03-06T10:27:45.529Z,22.23
2023-03-06T10:31:45.518Z,22.44
2023-03-06T10:35:45.661Z,22.40
2023-03-06T10:39:45.150Z,22.34
2023-03-06T10:43:45.579Z,22.25
2023-03-06T10:47:45.117Z,22.16
2023-03-06T10:51:45.041Z,22.07
2023-03-06T10:55:44.992Z,22.12
2023-03-06T10:59:44.980Z,22.11
2023-03-06T11:03:45.078Z,22.06
2023-03-06T11:07:44.873Z,22.10
2023-03-06T11:16:03.856Z,22.14
2023-03-06T11:20:04.058Z,22.22
2023-03-06T11:24:03.693Z,22.16
2023-03-06T11:28:03.710Z,18.88
2023-03-06T11:32:03.696Z,18.57
2023-03-06T11:36:03.649Z,18.42
2023-03-06T11:40:03.583Z,19.40
2023-03-06T11:44:03.557Z,20.05
2023-03-06T11:48:03.562Z,19.96
2023-03-06T11:52:03.459Z,19.85
2023-03-06T11:56:03.436Z,19.71
2023-03-06T12:00:03.447Z,19.75
2023-03-06T12:04:03.335Z,20.28
2023-03-06T12:08:03.424Z,20.41
2023-03-06T12:12:03.390Z,20.80
2023-03-06T12:16:03.346Z,20.82
2023-03-06T12:20:03.567Z,20.96
2023-03-06T12:24:03.709Z,20.80
2023-03-06T12:28:03.694Z,20.59
2023-03-06T12:32:03.764Z,20.41
2023-03-06T12:36:03.664Z,20.21
2023-03-06T12:40:03.722Z,20.09
2023-03-06T12:44:03.800Z,19.88
2023-03-06T12:48:03.867Z,19.78
2023-03-06T12:52:03.955Z,19.85
2023-03-06T12:56:04.099Z,18.69
2023-03-06T13:00:04.222Z,18.29
2023-03-06T13:04:04.265Z,19.33
2023-03-06T13:08:04.323Z,20.21
2023-03-06T13:12:04.300Z,20.72
2023-03-06T13:16:04.235Z,21.02
2023-03-06T13:20:04.177Z,21.19
2023-03-06T13:24:04.183Z,21.21
2023-03-06T13:28:04.152Z,19.99
2023-03-06T13:32:04.173Z,19.82
2023-03-06T13:36:04.055Z,19.51
2023-03-06T13:40:04.031Z,17.89
2023-03-06T13:44:04.005Z,18.15
2023-03-06T13:48:27.299Z,18.40
2023-03-06T13:52:04.915Z,19.02
2023-03-06T13:56:03.879Z,19.36
2023-03-06T14:00:09.193Z,19.37
2023-03-06T14:04:04.797Z,18.49
2023-03-06T14:08:03.782Z,18.28
2023-03-06T14:12:03.776Z,19.42
2023-03-06T14:16:03.883Z,20.35
2023-03-06T14:20:04.053Z,20.75
2023-03-06T14:24:04.121Z,20.73
2023-03-06T14:28:13.789Z,20.70
2023-03-06T14:32:05.164Z,20.87
2023-03-06T14:36:04.069Z,20.86
2023-03-06T14:40:04.213Z,20.79
2023-03-06T14:44:04.654Z,20.89
2023-03-06T14:48:04.586Z,21.22
2023-03-06T14:52:04.782Z,21.08
2023-03-06T14:56:06.052Z,20.99
2023-03-06T15:00:05.147Z,20.90
2023-03-06T15:04:05.171Z,20.76
2023-03-06T15:08:05.101Z,20.72
2023-03-06T15:12:05.048Z,20.69
2023-03-06T15:16:05.101Z,20.73
2023-03-06T15:20:04.969Z,20.64
2023-03-06T15:24:04.952Z,20.57
2023-03-06T15:28:04.879Z,20.72
2023-03-06T15:32:04.897Z,20.72
2023-03-06T15:36:04.873Z,20.83
2023-03-06T15:40:04.815Z,20.82
2023-03-06T15:44:04.742Z,20.88
2023-03-06T15:48:04.771Z,20.91
2023-03-06T15:52:04.723Z,20.93
2023-03-06T15:56:04.701Z,21.02
2023-03-06T16:00:04.977Z,21.03
2023-03-06T16:04:04.666Z,21.06
2023-03-06T16:08:04.535Z,21.13
2023-03-06T16:12:04.623Z,21.14
2023-03-06T16:16:04.478Z,21.16
2023-03-06T16:20:04.456Z,21.22
2023-03-06T16:24:04.476Z,21.26
2023-03-06T16:28:04.497Z,21.20
2023-03-06T16:32:04.587Z,21.32
2023-03-06T16:36:04.493Z,21.39
2023-03-06T16:40:04.527Z,21.39
2023-03-06T16:44:04.547Z,21.48
2023-03-06T16:48:04.647Z,21.46
2023-03-06T16:52:04.662Z,21.52
2023-03-06T16:56:04.700Z,21.49
2023-03-06T17:00:04.763Z,21.56
2023-03-06T17:04:04.803Z,21.64
2023-03-06T17:08:04.959Z,21.61
2023-03-06T17:12:04.918Z,21.64
2023-03-06T17:16:05.068Z,21.71
2023-03-06T17:20:05.157Z,21.75
2023-03-06T17:24:05.238Z,21.77
2023-03-06T17:28:05.361Z,21.78
2023-03-06T17:32:05.503Z,21.78
2023-03-06T17:36:05.521Z,21.87
2023-03-06T17:40:05.610Z,21.90
2023-03-06T17:44:05.744Z,21.89
2023-03-06T17:48:05.874Z,21.93
2023-03-06T17:52:05.996Z,21.91
2023-03-06T17:56:06.133Z,21.88
2023-03-06T18:00:06.320Z,21.98
2023-03-06T18:04:06.421Z,21.95
2023-03-06T18:08:06.615Z,21.97
2023-03-06T18:12:06.750Z,22.01
2023-03-06T18:16:06.950Z,21.98
2023-03-06T18:20:07.062Z,22.08
2023-03-06T18:24:07.174Z,22.06
2023-03-06T18:28:07.364Z,22.10
2023-03-06T18:32:07.658Z,22.11
2023-03-06T18:36:07.780Z,22.16
2023-03-06T18:40:07.966Z,22.16
2023-03-06T18:44:08.191Z,22.18
2023-03-06T18:48:08.357Z,22.26
2023-03-06T18:52:08.517Z,22.26
2023-03-06T18:56:08.780Z,22.29
2023-03-06T19:00:08.917Z,22.39
2023-03-06T19:04:09.199Z,22.29
2023-03-06T19:08:09.135Z,22.26
2023-03-06T19:12:09.060Z,22.24
2023-03-06T19:16:09.101Z,22.28
2023-03-06T19:20:09.005Z,22.29
2023-03-06T19:24:08.997Z,22.31
2023-03-06T19:28:08.905Z,22.30
2023-03-06T19:32:09.122Z,22.47
2023-03-06T19:36:08.815Z,22.44
2023-03-06T19:40:08.805Z,22.44
2023-03-06T19:44:08.780Z,22.43
2023-03-06T19:48:08.748Z,22.41
2023-03-06T19:52:08.883Z,22.38
2023-03-06T19:56:08.824Z,22.40
2023-03-06T20:00:08.837Z,22.37
2023-03-06T20:04:08.802Z,22.38
2023-03-06T20:08:08.672Z,22.43
2023-03-06T20:12:08.691Z,22.40
2023-03-06T20:16:08.639Z,22.47
2023-03-06T20:20:08.580Z,22.46
2023-03-06T20:24:08.576Z,22.50
2023-03-06T20:28:08.494Z,22.58
2023-03-06T20:32:08.553Z,22.49
2023-03-06T20:36:08.459Z,22.59
2023-03-06T20:40:08.548Z,22.57
2023-03-06T20:44:08.716Z,22.57
2023-03-06T20:48:08.943Z,22.63
2023-03-06T20:52:09.305Z,22.69
2023-03-06T20:56:09.097Z,22.72
2023-03-06T21:00:09.032Z,22.74
2023-03-06T21:04:08.966Z,22.69
2023-03-06T21:08:08.971Z,22.73
2023-03-06T21:12:08.942Z,22.75
2023-03-06T21:16:08.887Z,22.76
2023-03-06T21:20:08.848Z,22.72
2023-03-06T21:24:08.823Z,22.76
2023-03-06T21:28:08.810Z,22.76
2023-03-06T21:32:08.769Z,22.75
2023-03-06T21:36:08.704Z,22.69
2023-03-06T21:40:08.637Z,22.78
2023-03-06T21:44:08.652Z,22.75
2023-03-06T21:48:08.585Z,22.75
2023-03-06T21:52:08.577Z,22.75
2023-03-06T21:56:08.529Z,22.76
2023-03-06T22:00:08.812Z,22.76
2023-03-06T22:04:08.477Z,22.76
2023-03-06T22:08:08.387Z,22.73
2023-03-06T22:12:08.401Z,22.77
2023-03-06T22:16:08.408Z,22.80
2023-03-06T22:24:25.879Z,22.76
2023-03-06T22:28:25.847Z,22.77
2023-03-06T22:32:25.988Z,22.76
2023-03-06T22:36:25.773Z,22.71
2023-03-06T22:40:25.739Z,22.80
2023-03-06T22:44:25.705Z,22.76
2023-03-06T22:48:25.625Z,22.76
2023-03-06T22:52:25.578Z,22.72
2023-03-06T22:56:25.566Z,22.77
2023-03-06T23:00:25.499Z,22.80
2023-03-06T23:04:25.589Z,22.77
2023-03-06T23:08:25.461Z,22.71
2023-03-06T23:12:25.415Z,22.75
2023-03-06T23:16:25.425Z,22.81
2023-03-06T23:20:25.334Z,22.77
2023-03-06T23:24:25.316Z,22.73
2023-03-06T23:28:25.286Z,22.77
2023-03-06T23:32:25.268Z,22.76
2023-03-06T23:36:25.195Z,22.74
2023-03-06T23:40:25.164Z,22.73
2023-03-06T23:44:25.109Z,22.76
2023-03-06T23:48:25.051Z,22.72
2023-03-06T23:52:25.055Z,22.75
2023-03-06T23:56:25.075Z,22.75
